北京 の空港の天気 - METARとTAF

北京首都国際空港 ( ZBAA / PEK ) - 中国 北京市
飛行場実況気象(Metar)
観測時間09/25 12:00 CST (09/25 04:00 UTC)
風向・風速南 3m/s
視程10km以上
天気現象
なし
気温22℃
湿度50%
気圧1022hPa
METARZBAA 250400Z 19003MPS 120V250 CAVOK 22/11 Q1022 NOSIG
過去の天気等 Google飛行場航空写真 Wunderground天気予報

過去48時間のMETAR

飛行場予報(TAF)
発表時間: 9/25 05:30 CST (9/24 21:30 UTC)
予報対象時間: 25日8時 CST ~ 26日8時 CST
風向・風速南南東 4m/s
視程6000m
なし
26日3時 CST ~ 26日8時 CST に一時的に
視程2700m
天気現象弱い雨 もや
TAF ZBAA 242130Z 2500/2524 16004MPS 6000 NSC TX23/2506Z TN11/2521Z
TEMPO 2519/2524 2700 -RA BR